Time;durP1;ratioP1;P1;durP2;ratioP2;P2;SDS_P1;SDS_P2;PMS_P1;PMS_P2;Temp;Humidity;BMP_temperature;BMP_pressure;BME280_temperature;BME280_humidity;BME280_pressure;Samples;Min_cycle;Max_cycle;Signal;HPM_P1;HPM_P2
2022/05/19 00:00:00;;;;;;;;;11.40;10.20;;;;;27.38;47.21;100989.19;2061917;28;47655;-63
2022/05/19 00:01:06;;;;;;;;;10.00;10.00;;;;;27.38;47.20;100991.06;2078611;28;45866;-62
2022/05/19 00:02:09;;;;;;;;;13.40;13.00;;;;;27.38;47.52;100999.25;2078985;28;47926;-64
2022/05/19 00:03:09;;;;;;;;;11.40;10.00;;;;;27.37;47.36;100995.66;2087583;28;48409;-64
2022/05/19 00:04:10;;;;;;;;;10.75;10.75;;;;;27.37;47.20;101002.97;2086210;28;47688;-63
2022/05/19 00:05:11;;;;;;;;;13.00;11.00;;;;;27.36;47.33;100996.66;2086767;28;47491;-63
2022/05/19 00:06:13;;;;;;;;;10.00;10.00;;;;;27.37;47.88;100986.63;2087125;28;47262;-63
2022/05/19 00:07:14;;;;;;;;;10.20;9.80;;;;;27.37;46.98;100995.66;2086580;28;47903;-63
2022/05/19 00:08:14;;;;;;;;;13.40;13.40;;;;;27.38;47.67;100988.34;2086909;28;47587;-63
2022/05/19 00:09:15;;;;;;;;;12.25;11.00;;;;;27.37;47.89;100992.06;2086323;28;47766;-63
2022/05/19 00:10:16;;;;;;;;;11.75;11.75;;;;;27.37;47.45;100986.63;2087127;28;47481;-64
2022/05/19 00:11:20;;;;;;;;;12.50;11.50;;;;;27.38;47.51;100991.06;2085802;28;47509;-62
2022/05/19 00:12:22;;;;;;;;;9.60;9.60;;;;;27.37;47.68;100981.16;2076850;28;47710;-62
2022/05/19 00:13:24;;;;;;;;;12.60;11.80;;;;;27.37;48.01;100992.94;2076307;28;48245;-65
2022/05/19 00:14:25;;;;;;;;;11.40;11.40;;;;;27.37;47.94;100989.34;2086996;28;47728;-64
2022/05/19 00:15:25;;;;;;;;;12.50;11.25;;;;;27.36;47.88;100990.34;2086322;28;47811;-64
2022/05/19 00:16:27;;;;;;;;;12.75;11.50;;;;;27.36;47.96;100990.34;2085459;28;48405;-64
2022/05/19 00:17:28;;;;;;;;;11.60;11.60;;;;;27.35;47.53;100999.53;2085661;28;48214;-63
2022/05/19 00:18:28;;;;;;;;;10.50;10.25;;;;;27.34;47.67;100993.19;2069731;28;48006;-64
2022/05/19 00:19:29;;;;;;;;;9.25;9.25;;;;;27.35;47.54;100988.63;2068204;28;47982;-62
2022/05/19 00:20:29;;;;;;;;;10.75;9.00;;;;;27.35;47.73;100996.78;2087723;28;47910;-63
2022/05/19 00:21:30;;;;;;;;;11.00;9.75;;;;;27.35;47.61;100996.78;2086180;28;47902;-64
2022/05/19 00:22:30;;;;;;;;;10.75;10.75;;;;;27.33;47.76;100999.66;2087477;28;47730;-63
2022/05/19 00:23:31;;;;;;;;;12.00;11.00;;;;;27.33;47.68;101005.09;2085868;28;47964;-63
2022/05/19 00:24:31;;;;;;;;;10.25;10.25;;;;;27.35;47.42;100999.53;2087615;28;47542;-64
2022/05/19 00:25:32;;;;;;;;;11.50;11.00;;;;;27.34;47.88;100992.34;2086148;28;48005;-64
2022/05/19 00:26:32;;;;;;;;;13.25;12.75;;;;;27.33;47.97;100999.66;2087727;28;47128;-64
2022/05/19 00:27:33;;;;;;;;;14.00;11.50;;;;;27.33;47.83;100988.75;2086039;28;48178;-63
2022/05/19 00:28:33;;;;;;;;;12.50;12.50;;;;;27.33;47.88;100985.16;2086812;28;47788;-64
2022/05/19 00:29:33;;;;;;;;;13.75;13.75;;;;;27.33;48.02;100990.63;2085785;28;47520;-64
2022/05/19 00:30:35;;;;;;;;;12.25;12.25;;;;;27.33;47.76;100986.03;2087425;28;47976;-64
2022/05/19 00:31:36;;;;;;;;;11.00;10.80;;;;;27.34;48.03;100987.75;2086067;28;47623;-64
2022/05/19 00:32:36;;;;;;;;;9.00;8.80;;;;;27.33;48.22;100974.28;2087373;28;47757;-64
2022/05/19 00:33:37;;;;;;;;;10.25;10.25;;;;;27.31;48.04;100982.56;2085816;28;47950;-64
2022/05/19 00:34:38;;;;;;;;;12.20;12.20;;;;;27.31;48.26;100984.41;2087481;28;47600;-64
2022/05/19 00:35:39;;;;;;;;;19.00;19.00;;;;;27.30;48.52;100971.78;2072414;28;47792;-64
2022/05/19 00:36:40;;;;;;;;;14.80;14.80;;;;;27.30;47.71;100977.22;2075965;28;48275;-64
2022/05/19 00:37:40;;;;;;;;;13.50;13.50;;;;;27.29;48.20;100970.94;2086026;28;48065;-64
2022/05/19 00:38:42;;;;;;;;;38.00;32.00;;;;;27.28;48.31;100970.06;2082072;28;49073;-64
2022/05/19 00:39:42;;;;;;;;;19.80;18.80;;;;;27.27;48.21;100965.63;2077387;28;47208;-64
2022/05/19 00:40:50;;;;;;;;;26.25;26.25;;;;;27.26;47.90;100966.63;2085490;28;47395;-64
2022/05/19 00:42:43;;;;;;;;;19.40;16.60;;;;;27.25;48.02;100959.44;2088687;28;47919;-64
2022/05/19 00:43:15;;;;;;;;;18.20;15.20;;;;;27.25;48.06;100954.00;2086579;28;46685;-63
2022/05/19 00:44:15;;;;;;;;;14.60;14.60;;;;;27.25;48.04;100950.41;2085695;28;47695;-63
2022/05/19 00:45:58;;;;;;;;;13.50;13.50;;;;;27.25;48.52;100958.56;2085332;28;48134;-63
2022/05/19 00:46:58;;;;;;;;;12.80;12.80;;;;;27.22;48.72;100948.81;2083774;28;47812;-62
2022/05/19 00:48:08;;;;;;;;;14.80;13.00;;;;;27.22;48.82;100945.22;2085605;28;47514;-63
2022/05/19 00:49:12;;;;;;;;;14.60;14.40;;;;;27.20;48.50;100947.22;2087415;28;47514;-63
2022/05/19 00:50:36;;;;;;;;;12.80;11.80;;;;;27.20;48.09;100950.81;2086500;28;47650;-64
2022/05/19 00:51:42;;;;;;;;;13.80;13.80;;;;;27.18;48.72;100951.94;2085800;28;48021;-63
2022/05/19 00:52:45;;;;;;;;;11.80;11.80;;;;;27.18;48.31;100954.66;2087000;28;47589;-63
2022/05/19 00:53:49;;;;;;;;;12.20;12.00;;;;;27.16;48.79;100949.34;2086066;28;48101;-63
2022/05/19 00:55:02;;;;;;;;;11.60;11.60;;;;;27.14;48.45;100945.88;2091105;28;47972;-64
2022/05/19 00:56:10;;;;;;;;;11.60;11.60;;;;;27.14;48.62;100943.16;2080566;28;47423;-63
2022/05/19 00:57:16;;;;;;;;;13.20;13.20;;;;;27.13;48.83;100938.72;2086928;28;47581;-62
2022/05/19 00:58:54;;;;;;;;;14.00;13.40;;;;;27.14;48.20;100939.59;2086953;28;47957;-63
2022/05/19 01:00:03;;;;;;;;;10.60;10.20;;;;;27.15;48.83;100935.84;2060041;28;47577;-64
2022/05/19 01:01:06;;;;;;;;;12.20;12.20;;;;;27.13;48.77;100930.53;2061914;28;47641;-65
2022/05/19 01:02:10;;;;;;;;;13.00;12.20;;;;;27.13;48.99;100924.22;2051713;28;47839;-64
2022/05/19 01:03:14;;;;;;;;;13.80;13.20;;;;;27.12;48.75;100926.09;2053449;28;48136;-63
2022/05/19 01:04:24;;;;;;;;;11.40;11.40;;;;;27.12;48.57;100928.81;2053124;28;47793;-64
2022/05/19 01:05:34;;;;;;;;;12.80;12.80;;;;;27.10;48.45;100925.38;2053190;28;47707;-63
2022/05/19 01:06:36;;;;;;;;;9.40;9.40;;;;;27.11;48.95;100924.38;2060788;28;47306;-62
2022/05/19 01:07:54;;;;;;;;;12.60;11.80;;;;;27.10;49.12;100929.97;2060586;28;48229;-62
2022/05/19 01:09:00;;;;;;;;;7.00;7.00;;;;;27.09;48.81;100923.66;2062211;28;47900;-62
2022/05/19 01:10:04;;;;;;;;;11.80;11.80;;;;;27.10;48.88;100925.38;2059977;28;48102;-63
2022/05/19 01:11:06;;;;;;;;;13.00;13.00;;;;;27.10;49.29;100922.66;2062078;28;47813;-63
2022/05/19 01:12:07;;;;;;;;;12.60;12.40;;;;;27.11;48.86;100918.06;2060226;28;47458;-63
2022/05/19 01:13:11;;;;;;;;;13.20;13.20;;;;;27.11;48.48;100915.34;2061434;28;48101;-63
2022/05/19 01:14:12;;;;;;;;;15.00;13.00;;;;;27.11;48.57;100918.06;2059961;28;48016;-64
2022/05/19 01:15:14;;;;;;;;;10.75;9.75;;;;;27.10;49.18;100922.66;2061079;28;47860;-64
2022/05/19 01:16:15;;;;;;;;;12.00;11.60;;;;;27.11;49.30;100916.19;2061302;28;48425;-64
2022/05/19 01:17:16;;;;;;;;;15.40;15.40;;;;;27.11;48.88;100918.06;2060561;28;47232;-62
2022/05/19 01:18:17;;;;;;;;;12.50;12.50;;;;;27.11;48.76;100918.06;2061026;28;47511;-63
2022/05/19 01:19:27;;;;;;;;;11.40;11.40;;;;;27.10;49.41;100914.47;2060420;28;47474;-62
2022/05/19 01:20:27;;;;;;;;;8.80;8.80;;;;;27.09;48.73;100915.47;2061677;28;48281;-63
2022/05/19 01:21:32;;;;;;;;;11.00;11.00;;;;;27.10;48.65;100917.19;2059861;28;47799;-63
2022/05/19 01:22:38;;;;;;;;;14.80;14.80;;;;;27.10;49.21;100908.16;2061376;28;47630;-63
2022/05/19 01:24:04;;;;;;;;;13.00;13.00;;;;;27.10;48.64;100919.94;2059996;28;47780;-64
2022/05/19 01:25:17;;;;;;;;;12.20;11.80;;;;;27.10;48.99;100911.75;2053868;28;45545;-62
2022/05/19 01:26:37;;;;;;;;;10.80;10.80;;;;;27.11;49.26;100909.88;2060187;28;47597;-63
2022/05/19 01:27:38;;;;;;;;;12.40;12.40;;;;;27.11;49.16;100912.63;2060179;28;47785;-63
2022/05/19 01:28:38;;;;;;;;;15.25;13.75;;;;;27.11;49.03;100912.63;2061543;28;47686;-64
2022/05/19 01:29:39;;;;;;;;;12.00;12.00;;;;;27.09;49.07;100907.31;2060464;28;47490;-63
2022/05/19 01:30:40;;;;;;;;;11.25;10.75;;;;;27.10;49.46;100914.47;2061561;28;47468;-64
2022/05/19 01:31:59;;;;;;;;;11.20;11.00;;;;;27.09;48.77;100910.03;2060531;28;47885;-64
2022/05/19 01:32:59;;;;;;;;;12.40;12.40;;;;;27.09;49.13;100912.75;2061318;28;48168;-63
2022/05/19 01:34:02;;;;;;;;;13.25;11.25;;;;;27.09;49.55;100904.56;2060062;28;47427;-63
2022/05/19 01:35:03;;;;;;;;;12.40;10.20;;;;;27.09;49.53;100909.16;2062009;28;47993;-63
2022/05/19 01:36:04;;;;;;;;;10.80;10.80;;;;;27.09;49.08;100911.91;2060086;28;48346;-62
2022/05/19 01:37:04;;;;;;;;;14.75;13.00;;;;;27.08;49.56;100913.75;2069539;28;47438;-63
2022/05/19 01:38:15;;;;;;;;;12.75;11.25;;;;;27.07;49.59;100909.31;2085511;28;47913;-63
2022/05/19 01:39:27;;;;;;;;;11.80;11.80;;;;;27.06;49.78;100906.69;2085971;28;47443;-62
2022/05/19 01:40:41;;;;;;;;;13.80;13.00;;;;;27.05;49.57;100905.81;2087893;28;47639;-63
2022/05/19 01:41:53;;;;;;;;;12.60;12.40;;;;;27.06;49.20;100910.31;2083577;28;47674;-65
2022/05/19 01:43:04;;;;;;;;;11.00;11.00;;;;;27.05;49.29;100907.69;2084405;28;48032;-63
2022/05/19 01:44:42;;;;;;;;;11.40;11.40;;;;;27.05;49.07;100904.97;2085845;28;47883;-63
2022/05/19 01:45:46;;;;;;;;;15.80;12.40;;;;;27.05;49.64;100908.56;2087157;28;47917;-63
2022/05/19 01:46:54;;;;;;;;;12.40;12.40;;;;;27.05;49.34;100900.38;2088486;28;47846;-64
2022/05/19 01:48:09;;;;;;;;;12.20;12.20;;;;;27.05;49.06;100904.97;2086926;28;47927;-63
2022/05/19 01:49:19;;;;;;;;;14.20;14.20;;;;;27.05;49.45;100910.41;2085188;28;47780;-62
2022/05/19 01:50:40;;;;;;;;;14.00;13.80;;;;;27.04;49.89;100903.25;2087254;28;47635;-63
2022/05/19 01:52:12;;;;;;;;;9.80;9.20;;;;;27.05;49.92;100910.41;2083263;28;48135;-63
2022/05/19 01:53:13;;;;;;;;;11.40;11.40;;;;;27.03;49.83;100910.56;2087073;28;47442;-63
2022/05/19 01:54:24;;;;;;;;;12.75;12.75;;;;;27.02;50.00;100910.69;2087817;28;47459;-63
2022/05/19 01:55:37;;;;;;;;;12.00;12.00;;;;;27.01;49.75;100912.56;2086461;28;47324;-62
2022/05/19 01:56:52;;;;;;;;;13.00;12.80;;;;;27.01;49.53;100914.38;2087649;28;47390;-63
2022/05/19 01:57:55;;;;;;;;;13.20;13.20;;;;;27.01;50.07;100911.66;2077917;28;47692;-62
2022/05/19 01:59:08;;;;;;;;;15.60;15.60;;;;;26.99;49.75;100907.22;2077528;28;47698;-63
2022/05/19 02:00:16;;;;;;;;;13.00;13.00;;;;;27.00;49.46;100905.34;2086515;28;47690;-64
2022/05/19 02:01:22;;;;;;;;;10.00;9.00;;;;;26.99;49.18;100898.19;2087423;28;48156;-64
2022/05/19 02:02:57;;;;;;;;;14.40;14.40;;;;;26.98;50.12;100902.75;2087759;28;47775;-63
2022/05/19 02:04:45;;;;;;;;;14.00;14.00;;;;;26.98;49.48;100900.03;2052951;28;48502;-64
2022/05/19 02:05:56;;;;;;;;;12.40;11.20;;;;;26.98;50.10;100900.03;2031969;28;47686;-63
2022/05/19 02:07:01;;;;;;;;;13.60;13.60;;;;;26.96;49.63;100902.03;2031892;28;47848;-63
2022/05/19 02:08:07;;;;;;;;;13.00;13.00;;;;;26.96;49.68;100903.91;2029951;28;47808;-63
2022/05/19 02:09:18;;;;;;;;;11.20;11.20;;;;;26.96;50.21;100902.03;2032644;28;48085;-63
2022/05/19 02:10:23;;;;;;;;;11.20;11.20;;;;;26.96;50.16;100903.91;2031499;28;48554;-64
2022/05/19 02:11:52;;;;;;;;;11.00;11.00;;;;;26.95;49.83;100896.72;2030130;28;47772;-63
2022/05/19 02:12:55;;;;;;;;;14.20;13.20;;;;;26.95;50.12;100904.91;2030587;29;47508;-64
2022/05/19 02:14:00;;;;;;;;;12.40;12.40;;;;;26.94;50.34;100903.19;2029062;28;48182;-64
2022/05/19 02:15:08;;;;;;;;;10.40;9.80;;;;;26.94;50.20;100905.91;2030074;29;47500;-64
2022/05/19 02:16:14;;;;;;;;;14.60;13.00;;;;;26.93;50.47;100909.59;2028993;28;48230;-64
2022/05/19 02:17:19;;;;;;;;;12.20;12.20;;;;;26.93;50.10;100907.75;2035567;28;48591;-63
2022/05/19 02:18:24;;;;;;;;;11.60;11.60;;;;;26.92;50.25;100910.59;2033354;28;47769;-64
2022/05/19 02:19:30;;;;;;;;;13.40;13.40;;;;;26.92;50.19;100910.59;2030131;28;48015;-64
2022/05/19 02:20:31;;;;;;;;;11.80;11.80;;;;;26.92;50.58;100911.44;2029431;29;47666;-64
2022/05/19 02:21:32;;;;;;;;;12.00;11.00;;;;;26.91;49.91;100915.19;2029078;28;47913;-63
2022/05/19 02:22:37;;;;;;;;;11.25;11.25;;;;;26.91;50.03;100908.88;2030361;29;47248;-63
2022/05/19 02:23:40;;;;;;;;;11.80;11.80;;;;;26.90;50.33;100904.41;2029136;28;47824;-64
2022/05/19 02:24:47;;;;;;;;;12.80;12.80;;;;;26.90;50.75;100915.31;2030118;29;47676;-64
2022/05/19 02:25:51;;;;;;;;;14.80;14.00;;;;;26.89;50.14;100910.88;2029494;28;47824;-63
2022/05/19 02:26:51;;;;;;;;;14.20;14.20;;;;;26.89;50.08;100905.41;2030301;28;47843;-63
2022/05/19 02:28:14;;;;;;;;;15.25;12.75;;;;;26.89;50.58;100910.88;2029081;28;47389;-63
2022/05/19 02:29:22;;;;;;;;;13.60;12.40;;;;;26.87;50.08;100908.28;2031040;28;48353;-63
2022/05/19 02:30:32;;;;;;;;;13.80;13.80;;;;;26.87;50.04;100908.28;2030303;29;47426;-63
2022/05/19 02:31:32;;;;;;;;;13.60;13.00;;;;;26.87;50.77;100911.00;2029464;29;47821;-62
2022/05/19 02:32:34;;;;;;;;;11.00;10.75;;;;;26.88;50.51;100903.69;2030624;28;47804;-64
2022/05/19 02:33:35;;;;;;;;;13.60;13.60;;;;;26.88;50.27;100909.13;2028940;28;47493;-63
2022/05/19 02:34:36;;;;;;;;;12.00;12.00;;;;;26.88;50.50;100907.28;2030653;29;47349;-63
2022/05/19 02:35:36;;;;;;;;;12.75;12.75;;;;;26.87;50.72;100911.00;2028900;28;47675;-64
2022/05/19 02:36:38;;;;;;;;;13.25;13.25;;;;;26.87;50.34;100911.00;2030695;29;48034;-64
2022/05/19 02:37:39;;;;;;;;;10.40;10.40;;;;;26.86;50.89;100906.56;2029150;28;47640;-64
2022/05/19 02:38:39;;;;;;;;;11.80;11.80;;;;;26.86;50.76;100903.84;2030569;29;48031;-64
2022/05/19 02:39:40;;;;;;;;;14.50;13.00;;;;;26.86;50.45;100911.13;2029480;29;47967;-63
2022/05/19 02:40:41;;;;;;;;;13.50;12.00;;;;;26.86;51.03;100903.84;2037372;28;47661;-64
2022/05/19 02:41:42;;;;;;;;;13.40;13.40;;;;;26.86;50.70;100908.41;2029062;28;47549;-64
2022/05/19 02:42:42;;;;;;;;;10.00;10.00;;;;;26.85;50.45;100904.81;2046685;28;48000;-64
2022/05/19 02:43:43;;;;;;;;;11.25;11.25;;;;;26.84;50.36;100902.25;2060494;28;47418;-64
2022/05/19 02:44:43;;;;;;;;;12.50;12.50;;;;;26.83;50.18;100901.38;2079284;28;48526;-64
2022/05/19 02:45:44;;;;;;;;;13.25;11.75;;;;;26.83;51.02;100900.53;2074466;28;47979;-63
2022/05/19 02:46:45;;;;;;;;;12.00;12.00;;;;;26.82;50.41;100907.81;2083124;28;47751;-63
2022/05/19 02:47:46;;;;;;;;;12.50;11.50;;;;;26.82;50.92;100904.25;2075581;28;48198;-63
2022/05/19 02:48:46;;;;;;;;;13.20;12.80;;;;;26.83;50.68;100900.53;2078868;28;47615;-63
2022/05/19 02:49:47;;;;;;;;;11.50;11.50;;;;;26.82;51.24;100909.69;2074750;28;47042;-63
2022/05/19 02:50:48;;;;;;;;;12.25;12.25;;;;;26.82;50.64;100905.09;2080417;28;47497;-64
2022/05/19 02:51:49;;;;;;;;;14.00;14.00;;;;;26.82;50.65;100906.97;2076198;28;47815;-64
2022/05/19 02:52:49;;;;;;;;;13.50;11.75;;;;;26.81;50.41;100908.81;2088369;28;48243;-63
2022/05/19 02:53:50;;;;;;;;;13.50;13.50;;;;;26.81;50.37;100900.66;2086555;28;47960;-64
2022/05/19 02:54:50;;;;;;;;;11.00;11.00;;;;;26.81;50.29;100907.97;2088420;28;47914;-64
2022/05/19 02:55:50;;;;;;;;;13.75;12.50;;;;;26.81;50.96;100899.78;2085865;28;47331;-64
2022/05/19 02:56:51;;;;;;;;;12.75;12.75;;;;;26.81;50.40;100910.69;2088295;28;48032;-64
2022/05/19 02:57:52;;;;;;;;;12.50;12.50;;;;;26.80;51.13;100907.06;2076843;28;47507;-64
2022/05/19 02:58:52;;;;;;;;;11.00;11.00;;;;;26.79;50.59;100902.63;2081466;28;47307;-64
2022/05/19 02:59:53;;;;;;;;;13.75;12.25;;;;;26.80;51.24;100908.94;2077409;28;48098;-63
2022/05/19 03:00:53;;;;;;;;;12.25;12.25;;;;;26.80;50.38;100908.94;2087304;28;47752;-64
2022/05/19 03:01:54;;;;;;;;;15.25;13.50;;;;;26.78;50.35;100908.22;2066607;28;47557;-64
2022/05/19 03:02:57;;;;;;;;;13.25;12.00;;;;;26.80;50.64;100908.94;2059205;28;47752;-64
2022/05/19 03:03:57;;;;;;;;;14.80;14.20;;;;;26.78;51.19;100909.06;2070300;28;47549;-64
2022/05/19 03:04:59;;;;;;;;;11.50;11.25;;;;;26.79;51.05;100904.47;2086786;28;47435;-64
2022/05/19 03:05:59;;;;;;;;;12.20;12.00;;;;;26.79;50.83;100907.22;2085827;28;47506;-64
2022/05/19 03:06:59;;;;;;;;;12.75;12.75;;;;;26.78;50.97;100909.06;2088278;28;48046;-64
2022/05/19 03:08:00;;;;;;;;;12.75;12.75;;;;;26.79;50.39;100905.34;2085925;28;47767;-64
2022/05/19 03:09:00;;;;;;;;;11.25;11.25;;;;;26.80;50.88;100906.22;2088195;28;47461;-64
2022/05/19 03:10:02;;;;;;;;;12.75;12.75;;;;;26.78;50.69;100917.25;2086242;28;47666;-64
2022/05/19 03:11:03;;;;;;;;;10.60;10.60;;;;;26.78;51.24;100910.94;2087952;28;47734;-66
2022/05/19 03:12:03;;;;;;;;;9.00;9.00;;;;;26.77;50.47;100912.78;2086190;28;47728;-63
2022/05/19 03:13:04;;;;;;;;;11.50;11.50;;;;;26.77;50.65;100917.38;2088155;28;47923;-63
2022/05/19 03:14:05;;;;;;;;;12.50;12.00;;;;;26.77;50.65;100911.94;2086102;28;47869;-65
2022/05/19 03:15:06;;;;;;;;;13.75;13.00;;;;;26.76;50.82;100921.97;2088332;28;47547;-64
2022/05/19 03:16:07;;;;;;;;;12.00;12.00;;;;;26.75;50.49;100912.06;2086024;28;48115;-64
2022/05/19 03:17:10;;;;;;;;;14.40;13.60;;;;;26.74;51.32;100912.19;2070352;28;47559;-65
2022/05/19 03:18:10;;;;;;;;;13.80;13.00;;;;;26.73;50.68;100922.22;2052884;28;47639;-63
2022/05/19 03:19:10;;;;;;;;;11.00;11.00;;;;;26.73;51.10;100910.47;2069764;28;47789;-63
2022/05/19 03:20:15;;;;;;;;;10.75;10.75;;;;;26.72;50.83;100915.06;2087014;28;48023;-63
2022/05/19 03:21:15;;;;;;;;;15.00;13.40;;;;;26.72;50.63;100908.75;2086810;28;47539;-63
2022/05/19 03:22:16;;;;;;;;;14.25;14.25;;;;;26.72;50.85;100900.59;2087653;28;47119;-63
2022/05/19 03:23:16;;;;;;;;;11.50;11.50;;;;;26.73;51.30;100910.47;2086814;28;47752;-64
2022/05/19 03:24:16;;;;;;;;;12.00;12.00;;;;;26.72;50.76;100908.75;2087214;28;47434;-64
2022/05/19 03:25:17;;;;;;;;;20.25;19.75;;;;;26.71;50.70;100901.59;2086663;28;47855;-63
2022/05/19 03:26:17;;;;;;;;;15.25;15.25;;;;;26.71;51.25;100904.31;2087008;28;47506;-62
2022/05/19 03:27:20;;;;;;;;;18.50;17.50;;;;;26.69;50.64;100899.00;2086610;28;47584;-63
2022/05/19 03:28:20;;;;;;;;;11.40;11.40;;;;;26.68;50.80;100895.41;2087513;28;48234;-62
2022/05/19 03:29:21;;;;;;;;;11.00;11.00;;;;;26.69;51.17;100899.00;2081530;28;47278;-63
2022/05/19 03:30:22;;;;;;;;;13.20;13.20;;;;;26.67;51.30;100909.13;2082468;28;47376;-63
2022/05/19 03:31:22;;;;;;;;;13.75;13.50;;;;;26.66;51.40;100899.25;2086281;28;48213;-63
2022/05/19 03:32:22;;;;;;;;;14.00;14.00;;;;;26.66;51.35;100899.25;2087619;28;47444;-63
2022/05/19 03:33:23;;;;;;;;;14.25;14.25;;;;;26.64;51.41;100909.41;2086265;28;48448;-63
2022/05/19 03:34:23;;;;;;;;;17.25;15.75;;;;;26.64;51.32;100909.41;2087534;28;47162;-63
2022/05/19 03:35:24;;;;;;;;;11.50;11.50;;;;;26.63;50.83;100910.41;2086456;28;47361;-63
2022/05/19 03:36:24;;;;;;;;;13.50;13.50;;;;;26.62;51.44;100909.53;2087498;28;47760;-64
2022/05/19 03:37:24;;;;;;;;;13.00;13.00;;;;;26.62;50.96;100906.81;2086652;28;47613;-63
2022/05/19 03:38:26;;;;;;;;;12.00;12.00;;;;;26.63;51.26;100913.97;2087622;28;47567;-64
2022/05/19 03:39:26;;;;;;;;;14.40;14.20;;;;;26.60;51.69;100906.09;2086097;28;48317;-63
2022/05/19 03:40:27;;;;;;;;;12.75;12.50;;;;;26.59;51.37;100900.78;2077385;28;47681;-64
2022/05/19 03:41:27;;;;;;;;;13.00;13.00;;;;;26.59;51.72;100900.78;2082208;28;47333;-63
2022/05/19 03:42:27;;;;;;;;;13.50;13.50;;;;;26.56;51.68;100904.63;2086069;28;47514;-65
2022/05/19 03:43:28;;;;;;;;;12.00;12.00;;;;;26.54;51.39;100901.16;2086165;28;47589;-65
2022/05/19 03:44:28;;;;;;;;;16.00;14.75;;;;;26.53;51.28;100902.16;2086090;28;47730;-64
2022/05/19 03:45:29;;;;;;;;;13.00;13.00;;;;;26.53;51.19;100902.16;2086227;28;47411;-64
2022/05/19 03:46:29;;;;;;;;;12.00;12.00;;;;;26.53;51.18;100899.44;2087882;28;48019;-63
2022/05/19 03:47:30;;;;;;;;;9.00;9.00;;;;;26.53;51.48;100899.44;2086510;28;47416;-63
2022/05/19 03:48:35;;;;;;;;;13.25;13.25;;;;;26.53;51.11;100893.97;2087612;28;47893;-63
2022/05/19 03:49:36;;;;;;;;;12.80;12.80;;;;;26.54;51.43;100903.00;2081624;28;48096;-63
2022/05/19 03:50:37;;;;;;;;;12.50;12.50;;;;;26.53;51.66;100893.13;2087965;28;47643;-64
2022/05/19 03:51:37;;;;;;;;;12.25;12.25;;;;;26.53;51.24;100895.84;2086167;28;47880;-64
2022/05/19 03:52:40;;;;;;;;;11.00;11.00;;;;;26.53;51.83;100901.28;2087833;28;47543;-63
2022/05/19 03:53:40;;;;;;;;;10.80;10.80;;;;;26.53;51.67;100895.84;2086374;28;47515;-62
2022/05/19 03:54:41;;;;;;;;;15.00;14.00;;;;;26.53;51.30;100904.00;2087863;28;47776;-63
2022/05/19 03:55:42;;;;;;;;;15.00;13.50;;;;;26.52;51.75;100907.72;2085802;28;48056;-63
2022/05/19 03:56:42;;;;;;;;;14.75;13.25;;;;;26.51;51.58;100901.41;2087495;28;47693;-63
2022/05/19 03:57:42;;;;;;;;;13.25;11.00;;;;;26.51;51.36;100906.88;2071900;28;47405;-63
2022/05/19 03:58:43;;;;;;;;;13.75;13.75;;;;;26.50;51.16;100905.16;2075739;28;47238;-63
2022/05/19 03:59:43;;;;;;;;;13.50;12.00;;;;;26.50;51.21;100904.28;2086105;28;47980;-63
2022/05/19 04:00:44;;;;;;;;;13.50;12.50;;;;;26.49;51.65;100899.84;2087637;28;47287;-63
2022/05/19 04:01:45;;;;;;;;;13.00;12.50;;;;;26.49;51.87;100905.28;2080465;28;47403;-63
2022/05/19 04:02:46;;;;;;;;;18.00;15.80;;;;;26.48;51.72;100909.00;2085959;28;47666;-63
2022/05/19 04:03:47;;;;;;;;;15.50;15.50;;;;;26.47;51.67;100905.41;2085889;28;48186;-63
2022/05/19 04:04:48;;;;;;;;;13.60;13.60;;;;;26.45;51.61;100904.69;2087351;28;48042;-63
2022/05/19 04:05:48;;;;;;;;;12.25;12.00;;;;;26.45;51.48;100904.69;2086010;28;47362;-64
2022/05/19 04:06:48;;;;;;;;;13.75;13.75;;;;;26.45;51.88;100906.53;2080674;28;47418;-64
2022/05/19 04:07:49;;;;;;;;;15.25;15.25;;;;;26.44;51.19;100905.69;2077099;28;47942;-62
2022/05/19 04:08:49;;;;;;;;;13.00;13.00;;;;;26.43;51.38;100909.41;2087110;28;47509;-64
2022/05/19 04:09:49;;;;;;;;;11.00;11.00;;;;;26.43;51.15;100909.41;2086042;28;47746;-65
2022/05/19 04:10:50;;;;;;;;;13.50;13.00;;;;;26.43;51.87;100908.53;2086783;28;47398;-63
2022/05/19 04:11:50;;;;;;;;;13.00;12.25;;;;;26.43;51.31;100906.69;2085576;28;47357;-62
2022/05/19 04:12:51;;;;;;;;;11.50;11.50;;;;;26.43;51.24;100903.97;2087699;28;47477;-63
2022/05/19 04:13:51;;;;;;;;;13.50;13.50;;;;;26.42;51.19;100907.66;2086206;28;47806;-63
2022/05/19 04:14:52;;;;;;;;;14.00;14.00;;;;;26.42;51.35;100904.06;2087713;28;47863;-62
2022/05/19 04:15:52;;;;;;;;;12.50;11.50;;;;;26.40;51.81;100905.06;2086204;28;47846;-65
2022/05/19 04:16:53;;;;;;;;;13.25;13.25;;;;;26.40;51.37;100907.78;2077927;28;47973;-63
2022/05/19 04:17:53;;;;;;;;;13.60;13.60;;;;;26.40;51.42;100905.06;2070525;28;47692;-62
2022/05/19 04:18:55;;;;;;;;;12.50;12.50;;;;;26.40;51.38;100901.47;2087825;28;47421;-62
2022/05/19 04:19:55;;;;;;;;;14.60;13.60;;;;;26.40;51.47;100902.34;2077528;28;47774;-64
2022/05/19 04:20:56;;;;;;;;;13.00;13.00;;;;;26.39;51.83;100897.88;2084615;28;47788;-63
2022/05/19 04:21:57;;;;;;;;;14.00;13.00;;;;;26.39;51.11;100906.06;2085300;28;47021;-62
2022/05/19 04:22:59;;;;;;;;;14.20;12.60;;;;;26.41;51.37;100905.91;2087771;28;47799;-63
2022/05/19 04:24:00;;;;;;;;;12.60;12.60;;;;;26.40;51.42;100904.19;2085987;28;48056;-62
2022/05/19 04:25:00;;;;;;;;;15.00;15.00;;;;;26.40;51.34;100904.19;2087668;28;48122;-64
2022/05/19 04:26:01;;;;;;;;;10.75;10.75;;;;;26.40;51.75;100901.47;2085641;28;47744;-64
2022/05/19 04:27:03;;;;;;;;;11.25;11.25;;;;;26.40;51.23;100906.91;2087455;28;47713;-62
2022/05/19 04:28:04;;;;;;;;;9.80;9.80;;;;;26.39;51.28;100899.75;2085775;28;47585;-63
2022/05/19 04:29:04;;;;;;;;;15.40;14.00;;;;;26.39;51.37;100906.06;2082992;28;47786;-63
2022/05/19 04:30:06;;;;;;;;;12.00;11.00;;;;;26.39;51.84;100903.34;2077729;28;47651;-63
2022/05/19 04:31:06;;;;;;;;;11.00;11.00;;;;;26.40;51.93;100909.63;2087683;28;47737;-62
2022/05/19 04:32:07;;;;;;;;;11.25;11.25;;;;;26.39;51.24;100902.47;2085669;28;47396;-63
2022/05/19 04:33:09;;;;;;;;;13.25;13.25;;;;;26.39;51.81;100902.47;2087707;28;47432;-65
2022/05/19 04:34:09;;;;;;;;;9.20;9.20;;;;;26.39;51.20;100899.75;2067919;28;47862;-64
2022/05/19 04:35:11;;;;;;;;;14.75;12.75;;;;;26.38;51.75;100904.31;2069914;28;47479;-62
2022/05/19 04:36:12;;;;;;;;;11.00;11.00;;;;;26.37;51.18;100899.88;2086665;28;48323;-64
2022/05/19 04:37:12;;;;;;;;;13.00;13.00;;;;;26.37;51.18;100899.88;2086594;28;47873;-64
2022/05/19 04:38:15;;;;;;;;;12.50;12.50;;;;;26.38;51.05;100898.88;2086645;28;47423;-64
2022/05/19 04:39:15;;;;;;;;;9.20;9.20;;;;;26.39;50.96;100902.47;2086646;28;48004;-62
2022/05/19 04:40:18;;;;;;;;;10.50;10.50;;;;;26.38;51.18;100898.88;2086611;28;47773;-63
2022/05/19 04:41:18;;;;;;;;;12.80;12.80;;;;;26.39;51.24;100906.06;2091812;28;47084;-62
2022/05/19 04:42:19;;;;;;;;;13.25;12.00;;;;;26.39;51.20;100903.34;2087020;28;47948;-63
2022/05/19 04:43:24;;;;;;;;;11.25;10.75;;;;;26.39;50.96;100908.78;2086226;28;47980;-63
2022/05/19 04:44:24;;;;;;;;;15.40;15.40;;;;;26.38;51.60;100907.06;2086956;28;48132;-63
2022/05/19 04:45:24;;;;;;;;;12.25;12.25;;;;;26.38;51.81;100904.31;2086028;28;47594;-64
2022/05/19 04:46:25;;;;;;;;;10.75;10.00;;;;;26.38;51.69;100903.47;2087177;28;48082;-64
2022/05/19 04:47:27;;;;;;;;;12.00;12.00;;;;;26.38;51.07;100909.78;2084690;28;47795;-63
2022/05/19 04:48:27;;;;;;;;;11.80;11.80;;;;;26.38;51.11;100909.78;2086637;28;48012;-64
2022/05/19 04:49:28;;;;;;;;;14.25;14.25;;;;;26.38;50.97;100909.78;2086121;28;47504;-63